Time;durP1;ratioP1;P1;durP2;ratioP2;P2;SDS_P1;SDS_P2;PMS_P1;PMS_P2;Temp;Humidity;BMP_temperature;BMP_pressure;BME280_temperature;BME280_humidity;BME280_pressure;Samples;Min_cycle;Max_cycle;Signal;HPM_P1;HPM_P2
2024/01/13 00:00:37;;;;;;;0.00;0.00;;;;;;;;;;5094199;28;20059;-84
2024/01/13 00:03:03;;;;;;;0.00;0.00;;;;;;;;;;5079658;28;20027;-85
2024/01/13 00:05:29;;;;;;;0.00;0.00;;;;;;;;;;5096761;28;20027;-85
2024/01/13 00:07:55;;;;;;;0.00;0.00;;;;;;;;;;5096632;28;20437;-83
2024/01/13 00:10:21;;;;;;;0.00;0.00;;;;;;;;;;5114440;28;20035;-84
2024/01/13 00:12:46;;;;;;;0.00;0.00;;;;;;;;;;5079870;28;20035;-86
2024/01/13 00:15:12;;;;;;;0.00;0.00;;;;;;;;;;5096518;28;20027;-84
2024/01/13 00:17:37;;;;;;;0.00;0.00;;;;;;;;;;5069886;28;20085;-85
2024/01/13 00:20:04;;;;;;;0.00;0.00;;;;;;;;;;5068257;28;20024;-84
2024/01/13 00:22:29;;;;;;;0.00;0.00;;;;;;;;;;5087482;28;20024;-85
2024/01/13 00:24:55;;;;;;;0.00;0.00;;;;;;;;;;5092648;28;20024;-85
2024/01/13 00:27:20;;;;;;;0.00;0.00;;;;;;;;;;5093640;28;20046;-84
2024/01/13 00:29:46;;;;;;;0.00;0.00;;;;;;;;;;5075978;28;20032;-85
2024/01/13 00:32:12;;;;;;;0.00;0.00;;;;;;;;;;5076243;28;20036;-85
2024/01/13 00:34:37;;;;;;;0.00;0.00;;;;;;;;;;5059260;28;20466;-86
2024/01/13 00:37:03;;;;;;;0.00;0.00;;;;;;;;;;5059029;28;20020;-84
2024/01/13 00:39:28;;;;;;;0.00;0.00;;;;;;;;;;5075545;28;20024;-85
2024/01/13 00:41:54;;;;;;;0.00;0.00;;;;;;;;;;5075849;28;20488;-84
2024/01/13 00:44:19;;;;;;;0.00;0.00;;;;;;;;;;5059114;28;20042;-85
2024/01/13 00:46:45;;;;;;;0.00;0.00;;;;;;;;;;5093679;28;20020;-85
2024/01/13 00:49:10;;;;;;;0.00;0.00;;;;;;;;;;5074351;28;20458;-84
2024/01/13 00:51:36;;;;;;;0.00;0.00;;;;;;;;;;5075628;28;20279;-85
2024/01/13 00:54:05;;;;;;;0.00;0.00;;;;;;;;;;5064755;28;20023;-85
2024/01/13 00:56:32;;;;;;;0.00;0.00;;;;;;;;;;5095577;28;20059;-85
2024/01/13 00:58:58;;;;;;;0.00;0.00;;;;;;;;;;5062459;28;20028;-85
2024/01/13 01:01:23;;;;;;;0.00;0.00;;;;;;;;;;5095639;28;20027;-85
2024/01/13 01:03:49;;;;;;;0.00;0.00;;;;;;;;;;5100912;28;20016;-85
2024/01/13 01:06:14;;;;;;;0.00;0.00;;;;;;;;;;5074867;28;20024;-84
2024/01/13 01:08:40;;;;;;;0.00;0.00;;;;;;;;;;5075139;28;20024;-85
2024/01/13 01:11:06;;;;;;;0.00;0.00;;;;;;;;;;5075754;28;20024;-84
2024/01/13 01:13:32;;;;;;;0.00;0.00;;;;;;;;;;5058924;28;20020;-85
2024/01/13 01:15:57;;;;;;;0.00;0.00;;;;;;;;;;5075963;28;20031;-85
2024/01/13 01:18:23;;;;;;;0.00;0.00;;;;;;;;;;5075310;28;20024;-84
2024/01/13 01:20:49;;;;;;;0.00;0.00;;;;;;;;;;5085509;28;20020;-84
2024/01/13 01:23:14;;;;;;;0.00;0.00;;;;;;;;;;5093141;28;20039;-84
2024/01/13 01:25:40;;;;;;;0.00;0.00;;;;;;;;;;5091806;28;20097;-85
2024/01/13 01:28:05;;;;;;;0.00;0.00;;;;;;;;;;5075005;28;20035;-84
2024/01/13 01:30:31;;;;;;;0.00;0.00;;;;;;;;;;5075808;28;20121;-85
2024/01/13 01:32:56;;;;;;;0.00;0.00;;;;;;;;;;5093442;28;20859;-85
2024/01/13 01:35:22;;;;;;;0.00;0.00;;;;;;;;;;5093252;28;20028;-84
2024/01/13 01:37:47;;;;;;;0.00;0.00;;;;;;;;;;5058387;28;20102;-84
2024/01/13 01:40:14;;;;;;;0.00;0.00;;;;;;;;;;5093020;28;20044;-85
2024/01/13 01:42:40;;;;;;;0.00;0.00;;;;;;;;;;5058522;28;20039;-85
2024/01/13 01:45:06;;;;;;;0.00;0.00;;;;;;;;;;5058407;28;20036;-85
2024/01/13 01:47:31;;;;;;;0.00;0.00;;;;;;;;;;5075266;28;20032;-84
2024/01/13 01:49:57;;;;;;;0.00;0.00;;;;;;;;;;5058262;28;20032;-85
2024/01/13 01:52:22;;;;;;;0.00;0.00;;;;;;;;;;5093062;28;20078;-85
2024/01/13 01:54:48;;;;;;;0.00;0.00;;;;;;;;;;5058871;28;20063;-84
2024/01/13 01:57:15;;;;;;;0.00;0.00;;;;;;;;;;5074713;28;20032;-84
2024/01/13 01:59:40;;;;;;;0.00;0.00;;;;;;;;;;5078484;28;20479;-85
2024/01/13 02:02:07;;;;;;;0.00;0.00;;;;;;;;;;5078245;28;20050;-84
2024/01/13 02:04:32;;;;;;;0.00;0.00;;;;;;;;;;5092213;28;20028;-85
2024/01/13 02:06:58;;;;;;;0.00;0.00;;;;;;;;;;5086980;28;20032;-85
2024/01/13 02:09:23;;;;;;;0.00;0.00;;;;;;;;;;5092187;28;20046;-85
2024/01/13 02:11:49;;;;;;;0.00;0.00;;;;;;;;;;5091609;28;20032;-84
2024/01/13 02:14:15;;;;;;;0.00;0.00;;;;;;;;;;5092043;28;20028;-85
2024/01/13 02:16:40;;;;;;;0.00;0.00;;;;;;;;;;5091629;28;20016;-84
2024/01/13 02:19:06;;;;;;;0.00;0.00;;;;;;;;;;5096543;28;20031;-84
2024/01/13 02:21:35;;;;;;;0.00;0.00;;;;;;;;;;5091633;28;20408;-84
2024/01/13 02:24:01;;;;;;;0.00;0.00;;;;;;;;;;5077773;28;20031;-84
2024/01/13 02:26:29;;;;;;;0.00;0.00;;;;;;;;;;5094672;28;20028;-85
2024/01/13 02:28:54;;;;;;;0.00;0.00;;;;;;;;;;5060975;28;20479;-85
2024/01/13 02:31:20;;;;;;;0.00;0.00;;;;;;;;;;5096290;28;20032;-84
2024/01/13 02:33:45;;;;;;;0.00;0.00;;;;;;;;;;5078097;28;20059;-85
2024/01/13 02:36:11;;;;;;;0.00;0.00;;;;;;;;;;5077805;28;20119;-85
2024/01/13 02:38:36;;;;;;;0.00;0.00;;;;;;;;;;5078189;28;20078;-85
2024/01/13 02:41:02;;;;;;;0.00;0.00;;;;;;;;;;5077946;28;20040;-85
2024/01/13 02:43:27;;;;;;;0.00;0.00;;;;;;;;;;5096957;28;20020;-85
2024/01/13 02:45:53;;;;;;;0.00;0.00;;;;;;;;;;5089140;28;20028;-85
2024/01/13 02:48:20;;;;;;;0.00;0.00;;;;;;;;;;5097924;28;20363;-84
2024/01/13 02:50:50;;;;;;;0.00;0.00;;;;;;;;;;5079324;28;20088;-85
2024/01/13 02:53:15;;;;;;;0.00;0.00;;;;;;;;;;5080347;28;20047;-85
2024/01/13 02:55:41;;;;;;;0.00;0.00;;;;;;;;;;5096717;28;20365;-85
2024/01/13 02:58:07;;;;;;;0.00;0.00;;;;;;;;;;5080499;28;20024;-85
2024/01/13 03:00:32;;;;;;;0.00;0.00;;;;;;;;;;5116067;28;20035;-84
2024/01/13 03:02:58;;;;;;;0.00;0.00;;;;;;;;;;5116196;28;20031;-85
2024/01/13 03:05:24;;;;;;;0.00;0.00;;;;;;;;;;5098099;28;20020;-84
2024/01/13 03:07:49;;;;;;;0.00;0.00;;;;;;;;;;5084538;28;20028;-85
2024/01/13 03:10:15;;;;;;;0.00;0.00;;;;;;;;;;5095499;28;20032;-85
2024/01/13 03:12:40;;;;;;;0.00;0.00;;;;;;;;;;5077469;28;20338;-85
2024/01/13 03:15:07;;;;;;;0.00;0.00;;;;;;;;;;5061356;28;20055;-85
2024/01/13 03:17:32;;;;;;;0.00;0.00;;;;;;;;;;5060845;28;20088;-85
2024/01/13 03:19:58;;;;;;;0.00;0.00;;;;;;;;;;5095135;28;20061;-84
2024/01/13 03:22:23;;;;;;;0.00;0.00;;;;;;;;;;5060902;28;20036;-85
2024/01/13 03:24:49;;;;;;;0.00;0.00;;;;;;;;;;5066124;28;20442;-84
2024/01/13 03:27:15;;;;;;;0.00;0.00;;;;;;;;;;5060116;28;20056;-85
2024/01/13 03:29:40;;;;;;;0.00;0.00;;;;;;;;;;5060080;28;20039;-85
2024/01/13 03:32:06;;;;;;;0.00;0.00;;;;;;;;;;5094448;28;20385;-85
2024/01/13 03:34:31;;;;;;;0.00;0.00;;;;;;;;;;5095195;28;20445;-85
2024/01/13 03:36:57;;;;;;;0.00;0.00;;;;;;;;;;5044449;28;20028;-85
2024/01/13 03:39:22;;;;;;;0.00;0.00;;;;;;;;;;5043781;28;20185;-86
2024/01/13 03:41:49;;;;;;;0.00;0.00;;;;;;;;;;5084249;28;20058;-84
2024/01/13 03:44:14;;;;;;;0.00;0.00;;;;;;;;;;5101064;28;20020;-84
2024/01/13 03:46:40;;;;;;;0.00;0.00;;;;;;;;;;5084019;28;20024;-83
2024/01/13 03:49:05;;;;;;;0.00;0.00;;;;;;;;;;5117520;28;20046;-85
2024/01/13 03:51:31;;;;;;;0.00;0.00;;;;;;;;;;5081967;28;20036;-84
2024/01/13 03:53:56;;;;;;;0.00;0.00;;;;;;;;;;5098403;28;20043;-85
2024/01/13 03:56:22;;;;;;;0.00;0.00;;;;;;;;;;5093807;28;20048;-85
2024/01/13 03:58:47;;;;;;;0.00;0.00;;;;;;;;;;5094686;28;20032;-84
2024/01/13 04:01:14;;;;;;;0.00;0.00;;;;;;;;;;5075741;28;20511;-82
2024/01/13 04:03:40;;;;;;;0.00;0.00;;;;;;;;;;5076109;28;20457;-83
2024/01/13 04:06:05;;;;;;;0.00;0.00;;;;;;;;;;5094449;28;20031;-84
2024/01/13 04:08:32;;;;;;;0.00;0.00;;;;;;;;;;5058112;28;20122;-84
2024/01/13 04:10:57;;;;;;;0.00;0.00;;;;;;;;;;5094279;28;20031;-85
2024/01/13 04:13:24;;;;;;;0.00;0.00;;;;;;;;;;5076752;28;20430;-84
2024/01/13 04:15:49;;;;;;;0.00;0.00;;;;;;;;;;5076168;28;20093;-84
2024/01/13 04:18:15;;;;;;;0.00;0.00;;;;;;;;;;5075944;28;20028;-85
2024/01/13 04:20:41;;;;;;;0.00;0.00;;;;;;;;;;5094251;28;20028;-85
2024/01/13 04:23:06;;;;;;;0.00;0.00;;;;;;;;;;5094572;28;20027;-85
2024/01/13 04:25:32;;;;;;;0.00;0.00;;;;;;;;;;5094146;28;20024;-85
2024/01/13 04:28:00;;;;;;;0.00;0.00;;;;;;;;;;5059393;28;20023;-85
2024/01/13 04:30:26;;;;;;;0.00;0.00;;;;;;;;;;5059569;28;20024;-84
2024/01/13 04:32:52;;;;;;;0.00;0.00;;;;;;;;;;5075060;28;20047;-85
2024/01/13 04:35:17;;;;;;;0.00;0.00;;;;;;;;;;5071531;28;20081;-84
2024/01/13 04:37:43;;;;;;;0.00;0.00;;;;;;;;;;5064459;28;20111;-85
2024/01/13 04:40:08;;;;;;;0.00;0.00;;;;;;;;;;5075272;28;20109;-85
2024/01/13 04:42:34;;;;;;;0.00;0.00;;;;;;;;;;5092915;28;20028;-84
2024/01/13 04:44:59;;;;;;;0.00;0.00;;;;;;;;;;5076210;28;20032;-84
2024/01/13 04:47:26;;;;;;;0.00;0.00;;;;;;;;;;5092725;28;20039;-84
2024/01/13 04:49:51;;;;;;;0.00;0.00;;;;;;;;;;5092453;28;20032;-84
2024/01/13 04:52:17;;;;;;;0.00;0.00;;;;;;;;;;5075837;28;20469;-85
2024/01/13 04:54:43;;;;;;;0.00;0.00;;;;;;;;;;5076147;28;20406;-85
2024/01/13 04:57:08;;;;;;;0.00;0.00;;;;;;;;;;5092942;28;20024;-84
2024/01/13 04:59:34;;;;;;;0.00;0.00;;;;;;;;;;5092564;28;20550;-85
2024/01/13 05:01:59;;;;;;;0.00;0.00;;;;;;;;;;5084232;28;20127;-86
2024/01/13 05:04:26;;;;;;;0.00;0.00;;;;;;;;;;5058668;28;20063;-85
2024/01/13 05:06:52;;;;;;;0.00;0.00;;;;;;;;;;5075241;28;20032;-85
2024/01/13 05:09:17;;;;;;;0.00;0.00;;;;;;;;;;5075944;28;20024;-84
2024/01/13 05:11:43;;;;;;;0.00;0.00;;;;;;;;;;5075209;28;20338;-87
2024/01/13 05:14:08;;;;;;;0.00;0.00;;;;;;;;;;5058985;28;20040;-85
2024/01/13 05:16:34;;;;;;;0.00;0.00;;;;;;;;;;5093609;28;20372;-84
2024/01/13 05:19:00;;;;;;;0.00;0.00;;;;;;;;;;5075587;28;20098;-85
2024/01/13 05:21:25;;;;;;;0.00;0.00;;;;;;;;;;5059222;28;20100;-84
2024/01/13 05:23:51;;;;;;;0.00;0.00;;;;;;;;;;5078225;28;20036;-85
2024/01/13 05:26:16;;;;;;;0.00;0.00;;;;;;;;;;5076280;28;20032;-85
2024/01/13 05:28:42;;;;;;;0.00;0.00;;;;;;;;;;5076649;28;20028;-85
2024/01/13 05:31:07;;;;;;;0.00;0.00;;;;;;;;;;5075550;28;20125;-86
2024/01/13 05:33:33;;;;;;;0.00;0.00;;;;;;;;;;5075642;28;20100;-85
2024/01/13 05:35:58;;;;;;;0.00;0.00;;;;;;;;;;5092491;28;20506;-86
2024/01/13 05:38:24;;;;;;;0.00;0.00;;;;;;;;;;5089018;28;20089;-85
2024/01/13 05:40:49;;;;;;;0.00;0.00;;;;;;;;;;5094375;28;20054;-85
2024/01/13 05:43:15;;;;;;;0.00;0.00;;;;;;;;;;5093037;28;20028;-85
2024/01/13 05:45:40;;;;;;;0.00;0.00;;;;;;;;;;5093083;28;20516;-84
2024/01/13 05:48:06;;;;;;;0.00;0.00;;;;;;;;;;5095345;28;20066;-84
2024/01/13 05:50:31;;;;;;;0.00;0.00;;;;;;;;;;5077264;28;20028;-85
2024/01/13 05:52:57;;;;;;;0.00;0.00;;;;;;;;;;5102354;28;20056;-83
2024/01/13 05:55:23;;;;;;;0.00;0.00;;;;;;;;;;5118539;28;20049;-83
2024/01/13 05:57:48;;;;;;;0.00;0.00;;;;;;;;;;5101573;28;20039;-85
2024/01/13 06:00:14;;;;;;;0.00;0.00;;;;;;;;;;5119966;28;20038;-85
2024/01/13 06:02:40;;;;;;;0.00;0.00;;;;;;;;;;5102340;28;20055;-85
2024/01/13 06:05:06;;;;;;;0.00;0.00;;;;;;;;;;5109367;28;20012;-85
2024/01/13 06:07:32;;;;;;;0.00;0.00;;;;;;;;;;5119277;28;20035;-85
2024/01/13 06:09:57;;;;;;;0.00;0.00;;;;;;;;;;5087202;28;20028;-83
2024/01/13 06:12:23;;;;;;;0.00;0.00;;;;;;;;;;5095568;28;20036;-84
2024/01/13 06:14:48;;;;;;;0.00;0.00;;;;;;;;;;5096143;28;20035;-83
2024/01/13 06:17:14;;;;;;;0.00;0.00;;;;;;;;;;5079693;28;20040;-84
2024/01/13 06:19:39;;;;;;;0.00;0.00;;;;;;;;;;5097316;28;20028;-85
2024/01/13 06:22:05;;;;;;;0.00;0.00;;;;;;;;;;5079143;28;20028;-84
2024/01/13 06:24:31;;;;;;;0.00;0.00;;;;;;;;;;5079368;28;20028;-83
2024/01/13 06:26:56;;;;;;;0.00;0.00;;;;;;;;;;5078525;28;20469;-83
2024/01/13 06:29:22;;;;;;;0.00;0.00;;;;;;;;;;5098561;28;20045;-83
2024/01/13 06:31:47;;;;;;;0.00;0.00;;;;;;;;;;5098367;28;20377;-83
2024/01/13 06:34:13;;;;;;;0.00;0.00;;;;;;;;;;5114487;28;20035;-84
2024/01/13 06:36:38;;;;;;;0.00;0.00;;;;;;;;;;5096416;28;20039;-84
2024/01/13 06:39:04;;;;;;;0.00;0.00;;;;;;;;;;5075179;28;20028;-84
2024/01/13 06:41:30;;;;;;;0.00;0.00;;;;;;;;;;5094093;28;20457;-85
2024/01/13 06:43:56;;;;;;;0.00;0.00;;;;;;;;;;5094308;28;20056;-84
2024/01/13 06:46:22;;;;;;;0.00;0.00;;;;;;;;;;5077460;28;20401;-83
2024/01/13 06:48:47;;;;;;;0.00;0.00;;;;;;;;;;5093770;28;20039;-84
2024/01/13 06:51:13;;;;;;;0.00;0.00;;;;;;;;;;5057252;28;20032;-84
2024/01/13 06:53:39;;;;;;;0.00;0.00;;;;;;;;;;5057631;28;20062;-84
2024/01/13 06:56:05;;;;;;;0.00;0.00;;;;;;;;;;5057743;28;20429;-84
2024/01/13 06:58:30;;;;;;;0.00;0.00;;;;;;;;;;5077555;28;20032;-84
2024/01/13 07:00:56;;;;;;;0.00;0.00;;;;;;;;;;5068650;28;20024;-84
2024/01/13 07:03:21;;;;;;;0.00;0.00;;;;;;;;;;5082959;28;20089;-84
2024/01/13 07:05:47;;;;;;;0.00;0.00;;;;;;;;;;5076394;28;20035;-84
2024/01/13 07:08:12;;;;;;;0.00;0.00;;;;;;;;;;5077192;28;20023;-84
2024/01/13 07:10:38;;;;;;;0.00;0.00;;;;;;;;;;5077039;28;20085;-84
2024/01/13 07:13:03;;;;;;;0.00;0.00;;;;;;;;;;5077560;28;20043;-84
2024/01/13 07:15:29;;;;;;;0.00;0.00;;;;;;;;;;5077937;28;20028;-84
2024/01/13 07:17:54;;;;;;;0.00;0.00;;;;;;;;;;5060841;28;20058;-84
2024/01/13 07:20:20;;;;;;;0.00;0.00;;;;;;;;;;5061148;28;20024;-84
2024/01/13 07:22:45;;;;;;;0.00;0.00;;;;;;;;;;5060768;28;20024;-84
2024/01/13 07:25:11;;;;;;;0.00;0.00;;;;;;;;;;5077176;28;20024;-84
2024/01/13 07:27:36;;;;;;;0.00;0.00;;;;;;;;;;5077338;28;20028;-83
2024/01/13 07:30:04;;;;;;;0.00;0.00;;;;;;;;;;5075975;28;20077;-84
2024/01/13 07:32:29;;;;;;;0.00;0.00;;;;;;;;;;5095282;28;20035;-83
2024/01/13 07:34:55;;;;;;;0.00;0.00;;;;;;;;;;5077077;28;20024;-84
2024/01/13 07:37:20;;;;;;;0.00;0.00;;;;;;;;;;5060685;28;20031;-83
2024/01/13 07:39:46;;;;;;;0.00;0.00;;;;;;;;;;5056013;28;20123;-83
2024/01/13 07:42:12;;;;;;;0.00;0.00;;;;;;;;;;5060316;28;20114;-84
2024/01/13 07:44:37;;;;;;;0.00;0.00;;;;;;;;;;5076893;28;20035;-83
2024/01/13 07:47:03;;;;;;;0.00;0.00;;;;;;;;;;5093769;28;20024;-83
2024/01/13 07:49:29;;;;;;;0.00;0.00;;;;;;;;;;5093627;28;20031;-84
2024/01/13 07:51:56;;;;;;;0.00;0.00;;;;;;;;;;5060715;28;20130;-84
2024/01/13 07:54:22;;;;;;;0.00;0.00;;;;;;;;;;5094713;28;20525;-84
2024/01/13 07:56:49;;;;;;;0.00;0.00;;;;;;;;;;5094574;28;20431;-83
2024/01/13 07:59:16;;;;;;;0.00;0.00;;;;;;;;;;5093296;28;20438;-83
2024/01/13 08:01:41;;;;;;;0.00;0.00;;;;;;;;;;5094566;28;20032;-84
2024/01/13 08:04:07;;;;;;;0.00;0.00;;;;;;;;;;5076568;28;20034;-83
2024/01/13 08:06:32;;;;;;;0.00;0.00;;;;;;;;;;5076483;28;20024;-84
2024/01/13 08:08:58;;;;;;;0.00;0.00;;;;;;;;;;5075554;28;20433;-83
2024/01/13 08:11:23;;;;;;;0.00;0.00;;;;;;;;;;5111571;28;20062;-83
2024/01/13 08:13:49;;;;;;;0.00;0.00;;;;;;;;;;5114753;28;20465;-84
2024/01/13 08:16:15;;;;;;;0.00;0.00;;;;;;;;;;5096076;28;20024;-84
2024/01/13 08:18:41;;;;;;;0.00;0.00;;;;;;;;;;5080328;28;20028;-85
2024/01/13 08:21:07;;;;;;;0.00;0.00;;;;;;;;;;5114180;28;20069;-84
2024/01/13 08:23:33;;;;;;;0.00;0.00;;;;;;;;;;5077787;28;20433;-85
2024/01/13 08:25:59;;;;;;;0.00;0.00;;;;;;;;;;5096542;28;20024;-84
2024/01/13 08:28:24;;;;;;;0.00;0.00;;;;;;;;;;5078361;28;20031;-84
2024/01/13 08:30:50;;;;;;;0.00;0.00;;;;;;;;;;5111168;28;20031;-84
2024/01/13 08:33:15;;;;;;;0.00;0.00;;;;;;;;;;5094940;28;20406;-85
2024/01/13 08:35:41;;;;;;;0.00;0.00;;;;;;;;;;5057326;28;20423;-84
2024/01/13 08:38:07;;;;;;;0.00;0.00;;;;;;;;;;5093832;28;20024;-84
2024/01/13 08:40:32;;;;;;;0.00;0.00;;;;;;;;;;5075823;28;20074;-85
2024/01/13 08:43:00;;;;;;;0.00;0.00;;;;;;;;;;5080743;28;20032;-84
2024/01/13 08:45:29;;;;;;;0.00;0.00;;;;;;;;;;5082693;28;20020;-84
2024/01/13 08:47:57;;;;;;;0.00;0.00;;;;;;;;;;5092114;28;20063;-86
2024/01/13 08:50:23;;;;;;;0.00;0.00;;;;;;;;;;5075831;28;20110;-84
2024/01/13 08:52:52;;;;;;;0.00;0.00;;;;;;;;;;5058832;28;20066;-84
2024/01/13 08:55:26;;;;;;;0.00;0.00;;;;;;;;;;5076806;28;20056;-85
2024/01/13 08:57:52;;;;;;;0.00;0.00;;;;;;;;;;5076160;28;20059;-86
2024/01/13 09:00:17;;;;;;;0.00;0.00;;;;;;;;;;5075986;28;20055;-85
2024/01/13 09:02:43;;;;;;;0.00;0.00;;;;;;;;;;5092362;28;20031;-84
2024/01/13 09:05:09;;;;;;;0.00;0.00;;;;;;;;;;5076215;28;20051;-85
2024/01/13 09:07:35;;;;;;;0.00;0.00;;;;;;;;;;5075593;28;20045;-86
2024/01/13 09:10:01;;;;;;;0.00;0.00;;;;;;;;;;5042460;28;20036;-86
2024/01/13 09:12:27;;;;;;;0.00;0.00;;;;;;;;;;5058236;28;20087;-87
2024/01/13 09:14:54;;;;;;;0.00;0.00;;;;;;;;;;5059123;28;20031;-87
2024/01/13 09:17:20;;;;;;;0.00;0.00;;;;;;;;;;5059309;28;20028;-86
2024/01/13 09:19:45;;;;;;;0.00;0.00;;;;;;;;;;5075544;28;20472;-87
2024/01/13 09:22:11;;;;;;;0.00;0.00;;;;;;;;;;5058528;28;20028;-87
2024/01/13 09:24:46;;;;;;;0.47;0.00;;;;;;;;;;5075532;28;20465;-87
2024/01/13 09:27:14;;;;;;;0.00;0.00;;;;;;;;;;5061531;28;20119;-87
2024/01/13 09:29:39;;;;;;;0.00;0.00;;;;;;;;;;5062943;28;20074;-87
2024/01/13 09:32:05;;;;;;;0.00;0.00;;;;;;;;;;5079197;28;20381;-88
2024/01/13 09:34:31;;;;;;;0.00;0.00;;;;;;;;;;5062825;28;20028;-88
2024/01/13 09:36:57;;;;;;;0.00;0.00;;;;;;;;;;5062800;28;20461;-88
2024/01/13 09:39:22;;;;;;;0.00;0.00;;;;;;;;;;5097559;28;20519;-87
2024/01/13 09:41:51;;;;;;;0.00;0.00;;;;;;;;;;5062335;28;20048;-88
2024/01/13 09:44:27;;;;;;;0.00;0.00;;;;;;;;;;5078614;28;20024;-88
2024/01/13 09:46:54;;;;;;;0.00;0.00;;;;;;;;;;5049242;28;20028;-89
2024/01/13 09:49:20;;;;;;;0.00;0.00;;;;;;;;;;5063133;28;20047;-89
2024/01/13 09:51:46;;;;;;;0.00;0.00;;;;;;;;;;5044931;28;20040;-88
2024/01/13 09:54:18;;;;;;;0.10;0.00;;;;;;;;;;5062387;28;20039;-90
2024/01/13 09:56:46;;;;;;;0.00;0.00;;;;;;;;;;5063035;28;20060;-90
2024/01/13 09:59:11;;;;;;;0.00;0.00;;;;;;;;;;5062147;28;21010;-88
2024/01/13 10:01:37;;;;;;;0.00;0.00;;;;;;;;;;5045668;28;20032;-88
2024/01/13 10:04:03;;;;;;;0.00;0.00;;;;;;;;;;5078551;28;20031;-89
2024/01/13 10:06:34;;;;;;;0.00;0.00;;;;;;;;;;5046098;28;20476;-88
2024/01/13 10:09:00;;;;;;;0.00;0.00;;;;;;;;;;5062754;28;20032;-88
2024/01/13 10:11:26;;;;;;;0.00;0.00;;;;;;;;;;5062549;28;20410;-88
2024/01/13 10:14:01;;;;;;;0.00;0.00;;;;;;;;;;5045598;28;20034;-89
2024/01/13 10:16:31;;;;;;;0.00;0.00;;;;;;;;;;5059371;28;20016;-88
2024/01/13 10:19:07;;;;;;;0.00;0.00;;;;;;;;;;5081613;28;20042;-88
2024/01/13 10:21:33;;;;;;;0.00;0.00;;;;;;;;;;5066891;28;20269;-88
2024/01/13 10:24:00;;;;;;;0.00;0.00;;;;;;;;;;5065751;28;20128;-87
2024/01/13 10:26:26;;;;;;;0.00;0.00;;;;;;;;;;5082369;28;20571;-87
2024/01/13 10:28:52;;;;;;;0.00;0.00;;;;;;;;;;5099145;28;20212;-87
2024/01/13 10:31:18;;;;;;;0.00;0.00;;;;;;;;;;5098100;28;20126;-87
2024/01/13 10:33:48;;;;;;;0.00;0.00;;;;;;;;;;5080439;28;20035;-87
2024/01/13 10:36:21;;;;;;;0.00;0.00;;;;;;;;;;5080670;28;20103;-87
2024/01/13 10:38:46;;;;;;;0.10;0.00;;;;;;;;;;5079208;28;20027;-86
2024/01/13 10:41:12;;;;;;;0.00;0.00;;;;;;;;;;5115171;28;20044;-86
2024/01/13 10:43:41;;;;;;;0.00;0.00;;;;;;;;;;5079950;28;20035;-86
2024/01/13 10:46:11;;;;;;;0.00;0.00;;;;;;;;;;5071547;28;20025;-86
2024/01/13 10:48:37;;;;;;;0.00;0.00;;;;;;;;;;5041516;28;20032;-85
2024/01/13 10:51:03;;;;;;;0.00;0.00;;;;;;;;;;5061828;28;20365;-84
2024/01/13 10:53:28;;;;;;;0.00;0.00;;;;;;;;;;5060893;28;20028;-86
2024/01/13 10:55:55;;;;;;;0.00;0.00;;;;;;;;;;5043911;28;20040;-86
2024/01/13 10:58:21;;;;;;;0.00;0.00;;;;;;;;;;5077648;28;20024;-86
2024/01/13 11:00:46;;;;;;;0.00;0.00;;;;;;;;;;5061004;28;20034;-85
2024/01/13 11:03:16;;;;;;;0.00;0.00;;;;;;;;;;5060667;28;20199;-86
2024/01/13 11:05:41;;;;;;;0.00;0.00;;;;;;;;;;5077455;28;20049;-86
2024/01/13 11:08:07;;;;;;;0.00;0.00;;;;;;;;;;5077769;28;20036;-85
2024/01/13 11:10:34;;;;;;;0.00;0.00;;;;;;;;;;5080510;28;20355;-86
2024/01/13 11:13:37;;;;;;;0.00;0.00;;;;;;;;;;5077672;28;20100;-86
2024/01/13 11:16:11;;;;;;;0.00;0.00;;;;;;;;;;5053573;28;20036;-85
2024/01/13 11:18:37;;;;;;;0.00;0.00;;;;;;;;;;5061306;28;20023;-86
2024/01/13 11:21:04;;;;;;;0.00;0.00;;;;;;;;;;5077859;28;20090;-86
2024/01/13 11:23:40;;;;;;;0.00;0.00;;;;;;;;;;5060884;28;20035;-86
2024/01/13 11:26:05;;;;;;;0.00;0.00;;;;;;;;;;5077623;28;20028;-85
2024/01/13 11:28:45;;;;;;;0.00;0.00;;;;;;;;;;5060715;28;20081;-85
2024/01/13 11:31:29;;;;;;;0.00;0.00;;;;;;;;;;5095718;28;20032;-86
2024/01/13 11:33:55;;;;;;;0.00;0.00;;;;;;;;;;5061180;28;20028;-84
2024/01/13 11:36:20;;;;;;;0.00;0.00;;;;;;;;;;5061310;28;20031;-85
2024/01/13 11:38:46;;;;;;;0.00;0.00;;;;;;;;;;5087875;28;20026;-85
2024/01/13 11:41:12;;;;;;;0.00;0.00;;;;;;;;;;5118886;28;20027;-84
2024/01/13 11:43:39;;;;;;;0.00;0.00;;;;;;;;;;5098850;28;20396;-85
2024/01/13 11:46:14;;;;;;;0.00;0.00;;;;;;;;;;5047597;28;20016;-85
2024/01/13 11:48:40;;;;;;;0.00;0.00;;;;;;;;;;5069698;28;20020;-85
2024/01/13 11:51:11;;;;;;;0.00;0.00;;;;;;;;;;5090228;28;20013;-86
2024/01/13 11:53:43;;;;;;;0.00;0.00;;;;;;;;;;5077882;28;20377;-86
2024/01/13 11:56:10;;;;;;;0.00;0.00;;;;;;;;;;5077911;28;20123;-85
2024/01/13 11:58:38;;;;;;;0.00;0.00;;;;;;;;;;5078029;28;20048;-87
2024/01/13 12:01:05;;;;;;;0.00;0.00;;;;;;;;;;5093490;28;20201;-86
2024/01/13 12:03:30;;;;;;;0.00;0.00;;;;;;;;;;5093991;28;20036;-87
2024/01/13 12:05:56;;;;;;;0.00;0.00;;;;;;;;;;5093285;28;20382;-86
2024/01/13 12:08:25;;;;;;;0.00;0.00;;;;;;;;;;5093458;28;20042;-86
2024/01/13 12:10:51;;;;;;;0.00;0.00;;;;;;;;;;5093314;28;20040;-86
2024/01/13 12:13:21;;;;;;;0.00;0.00;;;;;;;;;;5093227;28;20085;-86
2024/01/13 12:15:47;;;;;;;0.00;0.00;;;;;;;;;;5060894;28;20028;-86
2024/01/13 12:18:25;;;;;;;0.00;0.00;;;;;;;;;;5094921;28;20035;-86
2024/01/13 12:20:57;;;;;;;0.00;0.00;;;;;;;;;;5065500;28;20465;-87
2024/01/13 12:23:26;;;;;;;0.00;0.00;;;;;;;;;;5064136;28;20024;-87
2024/01/13 12:25:51;;;;;;;0.00;0.00;;;;;;;;;;5060104;28;20023;-85
2024/01/13 12:28:17;;;;;;;0.00;0.00;;;;;;;;;;5076361;28;20024;-86
2024/01/13 12:30:44;;;;;;;0.00;0.00;;;;;;;;;;5059663;28;20020;-85
2024/01/13 12:33:10;;;;;;;0.00;0.00;;;;;;;;;;5059654;28;20066;-85
2024/01/13 12:35:35;;;;;;;0.00;0.00;;;;;;;;;;5059502;28;20028;-86
2024/01/13 12:38:04;;;;;;;0.00;0.00;;;;;;;;;;5062874;28;20024;-86
2024/01/13 12:40:31;;;;;;;0.00;0.00;;;;;;;;;;5060029;28;20036;-85
2024/01/13 12:42:57;;;;;;;0.00;0.00;;;;;;;;;;5067578;28;20040;-87
2024/01/13 12:45:26;;;;;;;0.00;0.00;;;;;;;;;;5047092;28;20064;-86
2024/01/13 12:47:52;;;;;;;0.00;0.00;;;;;;;;;;5059770;28;20030;-86
2024/01/13 12:50:18;;;;;;;0.00;0.00;;;;;;;;;;5058246;28;20666;-86
2024/01/13 12:52:44;;;;;;;0.00;0.00;;;;;;;;;;5059036;28;20089;-86
2024/01/13 12:55:09;;;;;;;0.00;0.00;;;;;;;;;;5071809;28;20089;-86
2024/01/13 12:57:35;;;;;;;0.00;0.00;;;;;;;;;;5063351;28;20035;-85
2024/01/13 13:00:02;;;;;;;0.00;0.00;;;;;;;;;;5075368;28;20028;-86
2024/01/13 13:02:27;;;;;;;0.00;0.00;;;;;;;;;;5075044;28;20024;-87
2024/01/13 13:04:54;;;;;;;0.00;0.00;;;;;;;;;;5075504;28;20441;-86
2024/01/13 13:07:24;;;;;;;0.00;0.00;;;;;;;;;;5093433;28;20032;-87
2024/01/13 13:09:53;;;;;;;0.00;0.00;;;;;;;;;;5092551;28;20042;-86
2024/01/13 13:12:21;;;;;;;0.00;0.00;;;;;;;;;;5092087;28;20048;-86
2024/01/13 13:14:47;;;;;;;0.00;0.00;;;;;;;;;;5091885;28;20028;-87
2024/01/13 13:17:13;;;;;;;0.00;0.00;;;;;;;;;;5075524;28;20034;-87
2024/01/13 13:19:38;;;;;;;0.00;0.00;;;;;;;;;;5092345;28;20032;-86
2024/01/13 13:22:04;;;;;;;0.00;0.00;;;;;;;;;;5062803;28;20428;-87
2024/01/13 13:24:31;;;;;;;0.00;0.00;;;;;;;;;;5074978;28;20119;-87
2024/01/13 13:26:57;;;;;;;0.00;0.00;;;;;;;;;;5058664;28;20032;-87
2024/01/13 13:29:22;;;;;;;0.00;0.00;;;;;;;;;;5058430;28;20131;-87
2024/01/13 13:31:48;;;;;;;0.00;0.00;;;;;;;;;;5075274;28;20481;-87
2024/01/13 13:34:13;;;;;;;0.00;0.00;;;;;;;;;;5093388;28;20111;-87
2024/01/13 13:36:39;;;;;;;0.00;0.00;;;;;;;;;;5093164;28;20464;-87
2024/01/13 13:39:05;;;;;;;0.00;0.00;;;;;;;;;;5058615;28;20035;-86
2024/01/13 13:41:31;;;;;;;0.00;0.00;;;;;;;;;;5038835;28;20037;-86
2024/01/13 13:43:56;;;;;;;0.00;0.00;;;;;;;;;;5051538;28;20029;-87
2024/01/13 13:46:22;;;;;;;0.00;0.00;;;;;;;;;;5051565;28;20017;-86
2024/01/13 13:48:47;;;;;;;0.00;0.00;;;;;;;;;;5051548;28;20028;-86
2024/01/13 13:51:13;;;;;;;0.00;0.00;;;;;;;;;;5051666;28;20117;-86
2024/01/13 13:53:38;;;;;;;0.00;0.00;;;;;;;;;;5052144;28;20036;-86
2024/01/13 13:56:04;;;;;;;0.00;0.00;;;;;;;;;;5046978;28;20086;-87
2024/01/13 13:58:30;;;;;;;0.00;0.00;;;;;;;;;;5018144;28;20033;-86
2024/01/13 14:00:55;;;;;;;0.00;0.00;;;;;;;;;;5051210;28;20029;-88
2024/01/13 14:03:21;;;;;;;0.00;0.00;;;;;;;;;;5052797;28;20028;-88
2024/01/13 14:05:47;;;;;;;0.00;0.00;;;;;;;;;;5051922;28;20442;-89
2024/01/13 14:08:12;;;;;;;0.00;0.00;;;;;;;;;;5051409;28;20029;-87
2024/01/13 14:10:38;;;;;;;0.00;0.00;;;;;;;;;;5018386;28;20025;-86
2024/01/13 14:13:04;;;;;;;0.00;0.00;;;;;;;;;;5036638;28;20058;-86
2024/01/13 14:15:30;;;;;;;0.00;0.00;;;;;;;;;;5022054;28;20336;-87
2024/01/13 14:17:59;;;;;;;0.00;0.00;;;;;;;;;;5022058;28;20040;-87
2024/01/13 14:20:25;;;;;;;0.00;0.00;;;;;;;;;;5038507;28;20028;-87
2024/01/13 14:22:51;;;;;;;0.00;0.00;;;;;;;;;;5041964;28;20089;-88
2024/01/13 14:25:18;;;;;;;0.00;0.00;;;;;;;;;;5076431;28;20028;-87
2024/01/13 14:27:44;;;;;;;0.00;0.00;;;;;;;;;;5058418;28;20021;-88
2024/01/13 14:30:10;;;;;;;0.00;0.00;;;;;;;;;;5074843;28;20450;-88
2024/01/13 14:32:35;;;;;;;0.00;0.00;;;;;;;;;;5058104;28;20024;-87
2024/01/13 14:35:02;;;;;;;0.00;0.00;;;;;;;;;;5074806;28;20021;-88
2024/01/13 14:37:27;;;;;;;0.00;0.00;;;;;;;;;;5058429;28;20429;-89